Time;durP1;ratioP1;P1;durP2;ratioP2;P2;SDS_P1;SDS_P2;PMS_P1;PMS_P2;Temp;Humidity;BMP_temperature;BMP_pressure;BME280_temperature;BME280_humidity;BME280_pressure;Samples;Min_cycle;Max_cycle;Signal;HPM_P1;HPM_P2
2023/08/06 00:00:22;;;;;;;;;;;19.60;73.30;;;18.91;63.78;98677.69;10371613;28;1255;-70
2023/08/06 00:05:21;;;;;;;;;;;19.60;73.20;;;18.91;63.89;98684.75;10369709;28;1973;-70
2023/08/06 00:10:20;;;;;;;;;;;19.70;73.40;;;18.91;63.72;98680.31;10371002;28;918;-70
2023/08/06 00:15:21;;;;;;;;;;;19.60;73.20;;;18.90;63.75;98677.81;10367594;28;952;-70
2023/08/06 00:20:17;;;;;;;;;;;19.60;73.20;;;18.90;63.85;98662.81;10370009;28;796;-70
2023/08/06 00:25:16;;;;;;;;;;;19.60;73.20;;;18.90;63.74;98668.09;10366479;28;1902;-70
2023/08/06 00:30:32;;;;;;;;;;;19.60;73.30;;;18.88;63.76;98664.69;10370111;28;1060;-70
2023/08/06 00:35:31;;;;;;;;;;;19.60;73.20;;;18.89;63.87;98652.31;10366753;28;1002;-70
2023/08/06 00:40:30;;;;;;;;;;;19.60;73.20;;;18.88;63.85;98656.78;10369075;28;1433;-70
2023/08/06 00:45:46;;;;;;;;;;;19.60;73.20;;;18.88;63.83;98654.13;10368908;28;1962;-70
2023/08/06 00:50:42;;;;;;;;;;;19.60;73.30;;;18.88;63.68;98642.72;10368498;28;799;-70
2023/08/06 00:55:38;;;;;;;;;;;19.60;73.30;;;18.86;63.71;98639.34;10367793;28;1362;-70
2023/08/06 01:00:40;;;;;;;;;;;19.60;73.20;;;18.86;63.80;98634.06;10368266;28;1220;-70
2023/08/06 01:05:41;;;;;;;;;;;19.60;73.20;;;18.87;63.61;98636.59;10367127;28;1909;-70
2023/08/06 01:10:40;;;;;;;;;;;19.50;73.20;;;18.84;63.79;98623.63;10368610;28;834;-70
2023/08/06 01:15:36;;;;;;;;;;;19.60;73.20;;;18.83;63.58;98622.75;10367898;28;1189;-70
2023/08/06 01:20:38;;;;;;;;;;;19.60;73.20;;;18.83;63.66;98608.69;10367801;28;922;-70
2023/08/06 01:25:34;;;;;;;;;;;19.60;73.20;;;18.83;63.77;98609.53;10367568;28;1906;-70
2023/08/06 01:30:36;;;;;;;;;;;19.60;73.20;;;18.83;63.75;98600.78;10367992;28;838;-70
2023/08/06 01:35:35;;;;;;;;;;;19.50;73.10;;;18.82;63.73;98593.81;10366581;28;807;-70
2023/08/06 01:40:31;;;;;;;;;;;19.50;73.20;;;18.82;63.81;98586.75;10366473;28;937;-70
2023/08/06 01:45:30;;;;;;;;;;;19.50;73.10;;;18.81;63.67;98584.19;10367374;28;1910;-70
2023/08/06 01:50:28;;;;;;;;;;;19.50;73.10;;;18.80;63.75;98585.16;10366925;28;863;-70
2023/08/06 01:55:33;;;;;;;;;;;19.50;73.10;;;18.81;63.82;98584.19;10365668;28;1467;-70
2023/08/06 02:00:41;;;;;;;;;;;19.50;73.10;;;18.79;63.70;98586.94;10367215;28;602;-70
2023/08/06 02:05:43;;;;;;;;;;;19.50;73.10;;;18.80;63.61;98582.50;10361448;28;1913;-70
2023/08/06 02:10:38;;;;;;;;;;;19.50;73.10;;;18.79;63.78;98589.59;10366814;28;955;-70
2023/08/06 02:15:37;;;;;;;;;;;19.50;73.10;;;18.79;63.66;98581.66;10358501;28;1001;-70
2023/08/06 02:20:45;;;;;;;;;;;19.50;73.10;;;18.78;63.72;98579.94;10375332;28;869;-70
2023/08/06 02:25:47;;;;;;;;;;;19.50;73.10;;;18.78;63.55;98563.28;10374942;28;1910;-70
2023/08/06 02:30:51;;;;;;;;;;;19.50;73.10;;;18.77;63.58;98553.69;10374101;28;1214;-70
2023/08/06 02:35:52;;;;;;;;;;;19.50;73.10;;;18.76;63.73;98550.19;10374071;28;1356;-70
2023/08/06 02:40:50;;;;;;;;;;;19.50;73.10;;;18.76;63.63;98541.44;10374023;28;1359;-70
2023/08/06 02:45:49;;;;;;;;;;;19.50;73.10;;;18.76;63.79;98530.88;10373595;28;1909;-68
2023/08/06 02:50:50;;;;;;;;;;;19.50;73.00;;;18.75;63.58;98527.38;10360219;28;1398;-70
2023/08/06 02:55:47;;;;;;;;;;;19.40;72.90;;;18.74;63.78;98520.38;10373514;28;1957;-70
2023/08/06 03:00:43;;;;;;;;;;;19.50;73.00;;;18.74;63.72;98508.97;10372714;28;1398;-70
2023/08/06 03:05:38;;;;;;;;;;;19.50;73.00;;;18.74;63.71;98515.09;10373516;28;1914;-70
2023/08/06 03:10:43;;;;;;;;;;;19.40;72.90;;;18.74;63.71;98514.25;10372742;28;783;-69
2023/08/06 03:15:38;;;;;;;;;;;19.40;72.90;;;18.72;63.60;98511.72;10373056;28;1241;-69
2023/08/06 03:20:40;;;;;;;;;;;19.40;73.00;;;18.73;63.66;98507.25;10371746;28;1278;-69
2023/08/06 03:25:36;;;;;;;;;;;19.40;72.90;;;18.72;63.74;98508.22;10371668;28;1963;-69
2023/08/06 03:30:41;;;;;;;;;;;19.40;72.90;;;18.72;63.66;98511.72;10360766;28;1124;-69
2023/08/06 03:35:39;;;;;;;;;;;19.40;72.90;;;18.71;63.51;98514.47;10371619;28;1116;-69
2023/08/06 03:40:39;;;;;;;;;;;19.40;72.90;;;18.72;63.69;98516.16;10372197;28;874;-69
2023/08/06 03:45:34;;;;;;;;;;;19.40;73.00;;;18.70;63.70;98503.03;10368832;28;1917;-69
2023/08/06 03:56:09;;;;;;;;;;;19.40;72.90;;;18.70;63.70;98502.19;10359724;28;1726;-69
2023/08/06 04:01:08;;;;;;;;;;;19.40;72.90;;;18.69;63.51;98495.25;10371044;28;854;-69
2023/08/06 04:06:12;;;;;;;;;;;19.40;73.00;;;18.69;63.71;98495.25;10370455;28;1910;-69
2023/08/06 04:11:08;;;;;;;;;;;19.40;72.90;;;18.68;63.59;98491.75;10370645;28;873;-70
2023/08/06 04:16:11;;;;;;;;;;;19.40;73.00;;;18.68;63.72;98493.53;10370855;28;1208;-69
2023/08/06 04:26:38;;;;;;;;;;;19.40;73.00;;;18.66;63.81;98475.19;10355882;28;1910;-69
2023/08/06 04:31:42;;;;;;;;;;;19.40;73.00;;;18.67;63.59;98486.56;10369439;28;1301;-69
2023/08/06 04:36:38;;;;;;;;;;;19.40;73.00;;;18.66;63.76;98484.88;10369200;28;850;-69
2023/08/06 04:41:34;;;;;;;;;;;19.40;72.90;;;18.66;63.53;98490.16;10368401;28;1067;-69
2023/08/06 04:46:49;;;;;;;;;;;19.40;73.00;;;18.64;63.70;98484.97;10369230;28;1910;-69
2023/08/06 04:51:48;;;;;;;;;;;19.40;73.00;;;18.65;63.70;98489.31;10367737;28;1206;-69
2023/08/06 04:56:59;;;;;;;;;;;19.40;72.90;;;18.64;63.62;98487.63;10369229;28;1175;-69
2023/08/06 05:02:04;;;;;;;;;;;19.30;72.90;;;18.63;63.60;98496.50;10367768;28;938;-69
2023/08/06 05:07:08;;;;;;;;;;;19.30;72.90;;;18.64;63.52;98497.34;10368266;28;1910;-69
2023/08/06 05:12:04;;;;;;;;;;;19.30;72.90;;;18.62;63.49;98495.63;10367909;28;1207;-69
2023/08/06 05:16:59;;;;;;;;;;;19.30;72.90;;;18.62;63.78;98500.91;10367802;28;1245;-69
2023/08/06 05:22:01;;;;;;;;;;;19.30;72.90;;;18.62;63.71;98498.25;10367720;28;774;-69
2023/08/06 05:27:05;;;;;;;;;;;19.30;72.90;;;18.61;63.61;98499.22;10367237;28;1971;-69
2023/08/06 05:32:03;;;;;;;;;;;19.30;72.90;;;18.61;63.57;98501.88;10367031;28;1506;-69
2023/08/06 05:37:02;;;;;;;;;;;19.30;72.90;;;18.61;63.72;98499.22;10366546;28;1079;-69
2023/08/06 05:41:57;;;;;;;;;;;19.30;72.90;;;18.59;63.53;98495.84;10366999;28;894;-69
2023/08/06 05:47:06;;;;;;;;;;;19.30;72.90;;;18.59;63.71;98487.91;10367447;28;1909;-67
2023/08/06 05:52:28;;;;;;;;;;;19.30;72.90;;;18.60;63.63;98496.69;10364426;28;1113;-69
2023/08/06 05:57:29;;;;;;;;;;;19.30;72.90;;;18.59;63.54;98498.47;10366985;28;1294;-68
2023/08/06 06:02:24;;;;;;;;;;;19.30;72.90;;;18.61;63.64;98495.75;10366470;28;1918;-68
2023/08/06 06:07:20;;;;;;;;;;;19.30;72.90;;;18.61;63.57;98488.66;10365478;28;1416;-69
2023/08/06 06:12:24;;;;;;;;;;;19.30;73.00;;;18.61;63.78;98496.59;10365558;28;1320;-69
2023/08/06 06:17:22;;;;;;;;;;;19.30;73.20;;;18.60;63.63;98499.31;10366881;28;850;-69
2023/08/06 06:27:52;;;;;;;;;;;19.30;73.30;;;18.62;63.65;98505.34;10349493;28;1393;-69
2023/08/06 06:32:50;;;;;;;;;;;19.30;73.30;;;18.62;63.85;98494.78;10366085;28;860;-69
2023/08/06 06:37:46;;;;;;;;;;;19.30;73.40;;;18.61;63.85;98496.59;10364746;28;1567;-69
2023/08/06 06:42:57;;;;;;;;;;;19.30;73.30;;;18.60;63.98;98504.59;10365637;28;1901;-69
2023/08/06 06:47:56;;;;;;;;;;;19.30;73.50;;;18.59;63.94;98501.13;10365551;28;1451;-68
2023/08/06 06:52:52;;;;;;;;;;;19.30;73.60;;;18.58;63.92;98507.34;10366003;28;2032;-69
2023/08/06 07:03:01;;;;;;;;;;;19.30;73.50;;;18.58;63.83;98503.88;10370952;28;1930;-69
2023/08/06 07:07:59;;;;;;;;;;;19.30;73.50;;;18.61;63.75;98503.66;10374184;28;1431;-68
2023/08/06 07:13:07;;;;;;;;;;;19.30;73.40;;;18.60;63.98;98510.75;10373571;28;1307;-68
2023/08/06 07:18:14;;;;;;;;;;;19.30;73.60;;;18.60;63.98;98512.50;10372361;28;1263;-68
2023/08/06 07:23:09;;;;;;;;;;;19.30;73.60;;;18.58;64.00;98525.81;10372079;28;1957;-68
2023/08/06 07:28:12;;;;;;;;;;;19.30;73.80;;;18.57;64.07;98518.84;10372809;28;859;-68
2023/08/06 07:33:08;;;;;;;;;;;19.30;73.90;;;18.58;64.35;98525.81;10372592;28;877;-68
2023/08/06 07:43:31;;;;;;;;;;;19.30;74.70;;;18.59;64.35;98530.16;10357885;28;1910;-69
2023/08/06 07:48:27;;;;;;;;;;;19.30;74.80;;;18.60;64.32;98539.78;10372151;28;862;-68
2023/08/06 07:53:22;;;;;;;;;;;19.20;74.60;;;18.59;64.48;98540.69;10371228;28;843;-68
2023/08/06 07:58:20;;;;;;;;;;;19.20;74.70;;;18.58;64.50;98544.28;10370691;28;1217;-68
2023/08/06 08:24:19;;;;;;;;;;;19.20;74.70;;;18.57;64.51;98534.66;10370320;28;1890;-68
2023/08/06 08:29:21;;;;;;;;;;;19.20;74.60;;;18.57;64.33;98536.47;10370455;28;1049;-69
2023/08/06 08:34:19;;;;;;;;;;;19.20;74.60;;;18.56;64.25;98526.88;10369588;28;873;-69
2023/08/06 08:39:15;;;;;;;;;;;19.20;74.50;;;18.56;64.27;98532.16;10368870;28;882;-69
2023/08/06 08:44:10;;;;;;;;;;;19.20;74.50;;;18.55;64.39;98526.03;10369905;28;1961;-69
2023/08/06 08:49:09;;;;;;;;;;;19.20;74.50;;;18.54;64.27;98529.59;10369006;28;948;-69
2023/08/06 08:54:04;;;;;;;;;;;19.20;74.40;;;18.55;64.34;98520.75;10369645;28;867;-69
2023/08/06 08:59:03;;;;;;;;;;;19.20;74.40;;;18.53;64.19;98522.66;10369671;28;1138;-69
2023/08/06 09:03:59;;;;;;;;;;;19.20;74.40;;;18.53;64.40;98527.91;10368882;28;1910;-69
2023/08/06 09:08:54;;;;;;;;;;;19.20;74.40;;;18.55;64.35;98531.31;10367672;28;939;-69
2023/08/06 09:13:50;;;;;;;;;;;19.20;74.30;;;18.53;64.42;98522.66;10368190;28;878;-69
2023/08/06 09:18:45;;;;;;;;;;;19.20;74.30;;;18.52;64.36;98534.16;10367289;28;854;-69
2023/08/06 09:23:44;;;;;;;;;;;19.20;74.30;;;18.53;64.32;98529.72;10367811;28;1906;-69
2023/08/06 09:28:41;;;;;;;;;;;19.20;74.20;;;18.52;64.14;98539.44;10367575;28;889;-69
2023/08/06 09:33:40;;;;;;;;;;;19.20;74.20;;;18.51;64.24;98540.38;10366639;28;1352;-69
2023/08/06 09:38:38;;;;;;;;;;;19.20;74.20;;;18.52;64.27;98539.44;10367788;28;830;-69
2023/08/06 09:43:33;;;;;;;;;;;19.20;74.10;;;18.52;64.35;98546.47;10366426;28;1910;-69
2023/08/06 09:48:29;;;;;;;;;;;19.20;74.10;;;18.50;64.35;98551.88;10367690;28;819;-69
2023/08/06 09:53:24;;;;;;;;;;;19.20;74.10;;;18.50;64.22;98562.44;10366248;28;917;-67
2023/08/06 10:03:22;;;;;;;;;;;19.20;74.00;;;18.57;64.18;98576.06;10365589;28;1906;-69
2023/08/06 10:08:18;;;;;;;;;;;19.20;74.00;;;18.57;64.09;98583.97;10365850;28;1088;-69
2023/08/06 10:13:22;;;;;;;;;;;19.20;74.00;;;18.56;64.21;98583.13;10365439;28;918;-68
2023/08/06 10:23:31;;;;;;;;;;;19.20;73.90;;;18.54;63.92;98577.09;10365275;28;1906;-70
2023/08/06 10:28:30;;;;;;;;;;;19.20;73.90;;;18.56;63.95;98574.38;10366664;28;1198;-70
2023/08/06 10:33:31;;;;;;;;;;;19.20;73.90;;;18.57;63.88;98571.63;10366312;28;831;-70
2023/08/06 10:38:31;;;;;;;;;;;19.20;73.80;;;18.57;64.09;98570.78;10372190;28;1289;-70
2023/08/06 10:43:27;;;;;;;;;;;19.20;73.80;;;18.56;64.05;98569.94;10373604;28;1902;-70
2023/08/06 10:48:26;;;;;;;;;;;19.20;73.90;;;18.58;64.24;98567.22;10374538;28;957;-70
2023/08/06 10:58:35;;;;;;;;;;;19.20;73.80;;;18.62;63.90;98563.41;10331707;28;1215;-70
2023/08/06 11:03:33;;;;;;;;;;;19.20;73.90;;;18.62;63.76;98563.41;10330964;28;1968;-70
2023/08/06 11:13:47;;;;;;;;;;;19.20;73.80;;;18.66;63.88;98570.19;10330804;28;583;-70
2023/08/06 11:18:42;;;;;;;;;;;19.20;73.80;;;18.70;63.77;98563.75;10331087;28;947;-70
2023/08/06 11:23:38;;;;;;;;;;;19.20;73.70;;;18.68;63.66;98570.06;10331513;28;1906;-70
2023/08/06 11:33:50;;;;;;;;;;;19.30;73.80;;;18.65;63.69;98573.75;10330264;28;606;-68
2023/08/06 11:38:46;;;;;;;;;;;19.30;73.80;;;18.66;63.65;98579.91;10330326;28;1222;-68
2023/08/06 11:54:02;;;;;;;;;;;19.20;74.00;;;18.66;64.04;98567.56;10330064;28;668;-68
2023/08/06 11:59:04;;;;;;;;;;;19.30;74.20;;;18.66;64.04;98572.81;10359090;28;1466;-68
2023/08/06 12:04:05;;;;;;;;;;;19.30;74.40;;;18.70;64.20;98579.59;10367827;28;1905;-68
2023/08/06 12:09:10;;;;;;;;;;;19.30;74.50;;;18.72;64.38;98588.25;10370219;28;1267;-68
2023/08/06 12:14:06;;;;;;;;;;;19.30;75.10;;;18.74;64.24;98590.81;10370217;28;991;-68
2023/08/06 12:19:05;;;;;;;;;;;19.30;74.40;;;18.72;64.23;98592.69;10369951;28;857;-68
2023/08/06 12:24:00;;;;;;;;;;;19.30;74.50;;;18.70;64.40;98591.94;10369547;28;1964;-68
2023/08/06 12:29:11;;;;;;;;;;;19.30;74.70;;;18.69;64.25;98601.66;10369366;28;1007;-68
2023/08/06 12:34:07;;;;;;;;;;;19.30;74.80;;;18.66;64.42;98608.94;10369690;28;880;-69
2023/08/06 12:39:05;;;;;;;;;;;19.30;74.80;;;18.65;64.43;98615.97;10370018;28;862;-70
2023/08/06 12:49:25;;;;;;;;;;;19.30;74.80;;;18.65;64.30;98605.44;10368809;28;748;-70
2023/08/06 12:54:21;;;;;;;;;;;19.30;74.80;;;18.66;64.31;98611.59;10368772;28;886;-70
2023/08/06 12:59:20;;;;;;;;;;;19.20;74.60;;;18.65;64.54;98630.97;10363467;28;1244;-68
2023/08/06 13:09:33;;;;;;;;;;;19.30;74.70;;;18.61;64.63;98657.56;10367904;28;633;-69
2023/08/06 13:14:32;;;;;;;;;;;19.30;74.80;;;18.60;64.53;98663.81;10368210;28;787;-68
2023/08/06 13:19:33;;;;;;;;;;;19.30;74.90;;;18.58;64.65;98668.34;10367924;28;860;-69
2023/08/06 13:29:47;;;;;;;;;;;19.20;75.10;;;18.56;64.70;98664.94;10367703;28;600;-67
2023/08/06 13:34:49;;;;;;;;;;;19.20;74.90;;;18.56;64.78;98672.00;10367406;28;839;-67
2023/08/06 13:45:02;;;;;;;;;;;19.20;75.00;;;18.53;64.86;98694.16;10367211;28;1910;-67
2023/08/06 13:50:05;;;;;;;;;;;19.20;74.90;;;18.53;64.68;98696.81;10366834;28;906;-67
2023/08/06 14:05:18;;;;;;;;;;;19.20;74.90;;;18.52;64.50;98728.56;10365577;28;1969;-69
2023/08/06 14:10:17;;;;;;;;;;;19.20;74.90;;;18.52;64.72;98736.47;10366255;28;787;-70
2023/08/06 14:15:13;;;;;;;;;;;19.20;74.90;;;18.50;64.54;98738.38;10365591;28;969;-69
2023/08/06 14:25:43;;;;;;;;;;;19.20;74.80;;;18.48;64.75;98762.22;10365742;28;1905;-70
2023/08/06 14:30:38;;;;;;;;;;;19.20;74.80;;;18.50;64.64;98770.88;10366483;28;822;-71
2023/08/06 14:41:04;;;;;;;;;;;19.20;74.70;;;18.59;64.47;98785.28;10320506;28;1570;-70
2023/08/06 14:45:59;;;;;;;;;;;19.20;74.70;;;18.63;64.32;98797.38;10365630;28;1965;-70
2023/08/06 15:01:28;;;;;;;;;;;19.30;74.80;;;18.71;64.30;98815.38;10348575;28;1519;-70
2023/08/06 15:11:50;;;;;;;;;;;19.30;74.60;;;18.78;64.08;98817.53;10326829;28;998;-71
2023/08/06 15:16:51;;;;;;;;;;;19.40;74.60;;;18.80;64.05;98822.75;10364417;28;1237;-70
2023/08/06 15:27:15;;;;;;;;;;;19.40;74.00;;;18.89;63.76;98840.66;10372069;28;1910;-70
2023/08/06 15:32:11;;;;;;;;;;;19.40;73.90;;;18.89;63.94;98845.94;10372135;28;1583;-71
2023/08/06 15:37:07;;;;;;;;;;;19.50;74.20;;;18.89;63.91;98851.22;10371952;28;924;-70
2023/08/06 15:42:03;;;;;;;;;;;19.50;74.10;;;18.91;63.83;98857.25;10371753;28;965;-70
2023/08/06 15:46:58;;;;;;;;;;;19.50;74.20;;;18.96;63.98;98856.97;10371526;28;1902;-75
2023/08/06 15:51:53;;;;;;;;;;;19.50;74.00;;;18.95;63.82;98860.56;10371417;28;815;-75
2023/08/06 15:56:49;;;;;;;;;;;19.50;74.20;;;18.90;63.87;98867.91;10371206;28;813;-71
2023/08/06 16:01:44;;;;;;;;;;;19.50;75.00;;;18.89;63.94;98874.13;10371641;28;1378;-71
2023/08/06 16:06:39;;;;;;;;;;;19.50;74.00;;;18.88;63.75;98870.63;10371326;28;1975;-72
2023/08/06 16:11:35;;;;;;;;;;;19.50;73.80;;;18.89;63.88;98874.13;10370673;28;793;-72
2023/08/06 16:16:30;;;;;;;;;;;19.50;73.70;;;18.89;63.73;98872.34;10371026;28;851;-72
2023/08/06 16:21:26;;;;;;;;;;;19.50;73.70;;;18.91;63.60;98880.16;10370822;28;961;-71
2023/08/06 16:26:21;;;;;;;;;;;19.50;73.50;;;18.91;63.74;98878.38;10370094;28;1957;-71
2023/08/06 16:31:17;;;;;;;;;;;19.50;73.40;;;18.92;63.49;98880.09;10369733;28;878;-70
2023/08/06 16:36:12;;;;;;;;;;;19.50;73.40;;;18.91;63.43;98886.28;10368571;28;929;-71
2023/08/06 16:41:07;;;;;;;;;;;19.50;73.30;;;18.90;63.46;98892.53;10369386;28;886;-75
2023/08/06 16:46:03;;;;;;;;;;;19.50;73.20;;;18.90;63.57;98892.53;10369531;28;1898;-76
2023/08/06 16:50:58;;;;;;;;;;;19.50;73.20;;;18.90;63.38;98897.81;10369718;28;955;-75
2023/08/06 16:55:54;;;;;;;;;;;19.60;73.30;;;18.92;63.43;98897.72;10368862;28;914;-76
2023/08/06 17:00:49;;;;;;;;;;;19.60;73.20;;;18.92;63.38;98903.00;10368023;28;1531;-76
2023/08/06 17:05:45;;;;;;;;;;;19.50;73.10;;;18.93;63.44;98909.97;10369085;28;1955;-75
2023/08/06 17:10:40;;;;;;;;;;;19.50;73.00;;;18.92;63.29;98917.06;10367758;28;969;-75
2023/08/06 17:15:35;;;;;;;;;;;19.60;73.10;;;18.91;63.37;98915.34;10367797;28;868;-71
2023/08/06 17:20:32;;;;;;;;;;;19.60;73.10;;;18.92;63.21;98924.13;10367905;28;981;-75
2023/08/06 17:25:27;;;;;;;;;;;19.50;72.90;;;18.93;63.27;98921.38;10367750;28;1905;-76
2023/08/06 17:30:23;;;;;;;;;;;19.60;72.90;;;18.94;63.11;98933.66;10368167;28;870;-74
2023/08/06 17:35:18;;;;;;;;;;;19.60;72.80;;;18.95;63.16;98940.63;10367366;28;880;-75
2023/08/06 17:40:14;;;;;;;;;;;19.60;72.80;;;18.93;63.16;98939.88;10366731;28;921;-75
2023/08/06 17:45:09;;;;;;;;;;;19.60;72.80;;;18.94;63.02;98949.50;10367677;28;1965;-75
2023/08/06 17:50:05;;;;;;;;;;;19.60;72.80;;;18.94;63.06;98951.28;10367198;28;799;-75
2023/08/06 17:55:00;;;;;;;;;;;19.60;72.80;;;18.95;63.04;98956.47;10367342;28;904;-74
2023/08/06 17:59:56;;;;;;;;;;;19.60;72.70;;;18.98;63.12;98953.63;10366715;28;1195;-79
2023/08/06 18:04:51;;;;;;;;;;;19.60;72.70;;;19.00;63.08;98961.47;10366486;28;1906;-78
2023/08/06 18:09:46;;;;;;;;;;;19.60;72.70;;;18.99;63.06;98965.03;10366032;28;972;-79
2023/08/06 18:14:42;;;;;;;;;;;19.60;72.70;;;18.98;63.06;98958.09;10366321;28;819;-79
2023/08/06 18:19:37;;;;;;;;;;;19.60;73.60;;;18.99;63.14;98965.91;10365618;28;1189;-79
2023/08/06 18:24:32;;;;;;;;;;;19.60;72.80;;;19.01;63.23;98971.94;10363068;28;1963;-75
2023/08/06 18:29:28;;;;;;;;;;;19.60;72.70;;;19.00;63.14;98978.19;10366830;28;1078;-76
2023/08/06 18:34:23;;;;;;;;;;;19.60;72.70;;;19.01;63.15;98979.84;10365704;28;851;-74
2023/08/06 18:39:19;;;;;;;;;;;19.60;72.80;;;19.00;63.26;98980.81;10366177;28;791;-74
2023/08/06 18:44:14;;;;;;;;;;;19.60;72.80;;;19.00;63.23;98994.03;10365446;28;1951;-78
2023/08/06 18:49:09;;;;;;;;;;;19.60;72.70;;;19.02;63.22;98993.91;10365859;28;910;-79
2023/08/06 18:54:05;;;;;;;;;;;19.60;72.80;;;19.02;63.15;98994.78;10359488;28;1073;-76
2023/08/06 18:59:00;;;;;;;;;;;19.60;72.90;;;19.04;63.42;99003.44;10367154;28;1096;-79
2023/08/06 19:03:56;;;;;;;;;;;19.70;73.10;;;19.03;63.18;99001.75;10371389;28;1918;-79
2023/08/06 19:08:51;;;;;;;;;;;19.70;73.00;;;19.04;63.21;99015.81;10372549;28;948;-79
2023/08/06 19:13:46;;;;;;;;;;;19.70;73.10;;;19.03;63.22;99022.88;10372779;28;864;-79
2023/08/06 19:18:42;;;;;;;;;;;19.70;73.10;;;19.03;63.44;99027.31;10373211;28;893;-79
2023/08/06 19:23:37;;;;;;;;;;;19.70;73.10;;;19.05;63.34;99038.66;10372238;28;1972;-79
2023/08/06 19:28:34;;;;;;;;;;;19.70;73.00;;;19.08;63.01;99056.09;10372172;28;846;-79
2023/08/06 19:33:29;;;;;;;;;;;19.70;72.80;;;19.07;63.03;99060.50;10371752;28;776;-79
2023/08/06 19:38:24;;;;;;;;;;;19.70;72.90;;;19.07;63.19;99079.00;10371645;28;885;-79
2023/08/06 19:43:20;;;;;;;;;;;19.70;72.80;;;19.05;63.10;99083.56;10370587;28;1902;-79
2023/08/06 19:48:15;;;;;;;;;;;19.70;72.80;;;19.07;62.71;99091.38;10371230;28;876;-79
2023/08/06 19:53:11;;;;;;;;;;;19.70;72.50;;;19.03;63.25;99088.91;10371011;28;922;-79
2023/08/06 19:58:07;;;;;;;;;;;19.70;72.60;;;19.04;63.14;99095.88;10371414;28;1367;-79
2023/08/06 20:03:02;;;;;;;;;;;19.70;72.60;;;19.08;63.03;99098.38;10370427;28;1968;-75
2023/08/06 20:07:58;;;;;;;;;;;19.70;72.50;;;19.10;63.06;99096.47;10370331;28;818;-75
2023/08/06 20:12:53;;;;;;;;;;;19.70;72.70;;;19.12;62.87;99100.72;10369525;28;918;-75
2023/08/06 20:17:48;;;;;;;;;;;19.70;72.50;;;19.10;63.10;99107.91;10369906;28;815;-76
2023/08/06 20:22:44;;;;;;;;;;;19.70;72.70;;;19.11;63.00;99114.03;10369694;28;1906;-77
2023/08/06 20:27:39;;;;;;;;;;;19.70;72.70;;;19.09;63.01;99110.63;10370156;28;1022;-76
2023/08/06 20:32:35;;;;;;;;;;;19.70;72.80;;;19.10;63.19;99113.19;10369411;28;807;-77
2023/08/06 20:37:30;;;;;;;;;;;19.70;72.90;;;19.14;63.16;99117.34;10369225;28;815;-78
2023/08/06 20:42:25;;;;;;;;;;;19.70;73.00;;;19.15;63.15;99120.81;10369361;28;899;-78
2023/08/06 20:47:21;;;;;;;;;;;19.70;72.80;;;19.14;63.03;99119.97;10369435;28;1910;-78
2023/08/06 20:52:16;;;;;;;;;;;19.70;72.80;;;19.14;63.09;99130.53;10369038;28;862;-75
2023/08/06 20:57:12;;;;;;;;;;;19.70;72.80;;;19.13;63.03;99134.13;10368783;28;968;-79
2023/08/06 21:02:07;;;;;;;;;;;19.70;72.70;;;19.13;63.12;99146.50;10369331;28;1451;-79
2023/08/06 21:07:02;;;;;;;;;;;19.70;72.70;;;19.11;63.00;99145.72;10368916;28;1906;-79
2023/08/06 21:11:58;;;;;;;;;;;19.70;72.80;;;19.10;63.08;99146.66;10368302;28;803;-75
2023/08/06 21:16:53;;;;;;;;;;;19.70;72.80;;;19.08;63.24;99145.91;10368164;28;814;-70
2023/08/06 21:21:49;;;;;;;;;;;19.70;72.80;;;19.09;63.11;99147.59;10367417;28;830;-71
2023/08/06 21:26:44;;;;;;;;;;;19.70;72.70;;;19.06;63.25;99153.91;10368386;28;1910;-72
2023/08/06 21:31:40;;;;;;;;;;;19.70;72.80;;;19.07;63.25;99157.41;10367635;28;794;-72
2023/08/06 21:36:36;;;;;;;;;;;19.70;72.80;;;19.04;63.36;99151.34;10367442;28;887;-72
2023/08/06 21:41:31;;;;;;;;;;;19.70;72.90;;;19.04;63.34;99154.00;10367410;28;830;-71
2023/08/06 21:46:27;;;;;;;;;;;19.70;72.90;;;19.03;63.19;99154.94;10367054;28;1959;-72
2023/08/06 21:51:22;;;;;;;;;;;19.60;73.00;;;19.03;63.43;99154.94;10366972;28;914;-70
2023/08/06 21:56:18;;;;;;;;;;;19.70;73.00;;;19.04;63.41;99153.16;10366602;28;1195;-72
2023/08/06 22:01:13;;;;;;;;;;;19.60;72.90;;;19.04;63.35;99155.78;10367185;28;1302;-71
2023/08/06 22:06:10;;;;;;;;;;;19.60;73.00;;;19.03;63.22;99154.94;10367075;28;1909;-72
2023/08/06 22:11:05;;;;;;;;;;;19.60;73.00;;;19.02;63.20;99153.25;10366405;28;814;-72
2023/08/06 22:16:01;;;;;;;;;;;19.60;73.10;;;19.01;63.56;99154.19;10366414;28;881;-71
2023/08/06 22:20:56;;;;;;;;;;;19.60;73.00;;;19.02;63.20;99149.75;10365812;28;1067;-71
2023/08/06 22:25:52;;;;;;;;;;;19.60;73.00;;;19.01;63.29;99161.25;10365284;28;1969;-71
2023/08/06 22:30:47;;;;;;;;;;;19.60;73.00;;;18.99;63.10;99156.06;10366868;28;834;-72
2023/08/06 22:35:42;;;;;;;;;;;19.60;73.00;;;18.99;63.25;99158.72;10373903;28;897;-71
2023/08/06 22:40:38;;;;;;;;;;;19.60;73.00;;;18.99;63.17;99157.84;10373691;28;918;-71
2023/08/06 22:45:33;;;;;;;;;;;19.60;73.00;;;18.98;63.17;99159.63;10374263;28;1961;-71
2023/08/06 22:50:28;;;;;;;;;;;19.60;72.90;;;18.98;63.10;99157.00;10374568;28;885;-71
2023/08/06 22:55:24;;;;;;;;;;;19.60;72.90;;;18.97;63.27;99149.19;10373702;28;948;-71
2023/08/06 23:00:19;;;;;;;;;;;19.60;73.80;;;18.97;63.27;99160.59;10373496;28;1144;-71
2023/08/06 23:05:15;;;;;;;;;;;19.60;72.90;;;18.97;63.07;99157.09;10373894;28;1902;-71
2023/08/06 23:10:10;;;;;;;;;;;19.60;72.90;;;18.97;62.95;99149.19;10373174;28;993;-71
2023/08/06 23:15:05;;;;;;;;;;;19.60;72.90;;;18.97;63.04;99152.66;10372918;28;877;-71
2023/08/06 23:20:02;;;;;;;;;;;19.60;72.80;;;18.97;63.00;99144.75;10372914;28;811;-71
2023/08/06 23:24:57;;;;;;;;;;;19.60;72.80;;;18.97;62.97;99154.47;10373478;28;1905;-71
2023/08/06 23:29:53;;;;;;;;;;;19.50;72.70;;;18.96;63.03;99148.31;10373142;28;944;-71
2023/08/06 23:34:48;;;;;;;;;;;19.50;72.70;;;18.96;63.04;99142.19;10372792;28;870;-71
2023/08/06 23:39:44;;;;;;;;;;;19.50;72.70;;;18.96;62.99;99147.47;10372017;28;957;-71
2023/08/06 23:44:39;;;;;;;;;;;19.50;72.70;;;18.96;62.98;99137.75;10371026;28;1905;-71
2023/08/06 23:49:35;;;;;;;;;;;19.50;72.70;;;18.95;62.90;99135.22;10372243;28;866;-71
2023/08/06 23:54:30;;;;;;;;;;;19.50;72.80;;;18.94;62.96;99137.00;10371415;28;773;-71
2023/08/06 23:59:25;;;;;;;;;;;19.50;72.70;;;18.96;62.87;99142.19;10370740;28;1290;-71
